Time;durP1;ratioP1;P1;durP2;ratioP2;P2;SDS_P1;SDS_P2;PMS_P1;PMS_P2;Temp;Humidity;BMP_temperature;BMP_pressure;BME280_temperature;BME280_humidity;BME280_pressure;Samples;Min_cycle;Max_cycle;Signal;HPM_P1;HPM_P2
2021/01/23 00:01:03;;;;;;;11.60;7.53;;;7.60;59.80;;;;;;2097230;28;20035;-58
2021/01/23 00:02:24;;;;;;;10.63;7.60;;;7.60;59.80;;;;;;2098670;28;20459;-58
2021/01/23 00:03:45;;;;;;;11.63;7.25;;;7.60;59.70;;;;;;2095681;28;20086;-58
2021/01/23 00:05:06;;;;;;;8.60;7.03;;;7.60;59.70;;;;;;2091295;28;20155;-58
2021/01/23 00:06:27;;;;;;;8.32;6.65;;;7.60;59.70;;;;;;2097696;28;20032;-58
2021/01/23 00:07:48;;;;;;;7.70;6.75;;;7.60;59.80;;;;;;2096736;28;20061;-60
2021/01/23 00:09:09;;;;;;;11.35;7.38;;;7.60;59.80;;;;;;2097896;28;20430;-60
2021/01/23 00:10:30;;;;;;;9.52;6.38;;;7.60;59.80;;;;;;2091262;28;20127;-58
2021/01/23 00:11:51;;;;;;;9.68;8.05;;;7.60;59.80;;;;;;2095634;28;20043;-58
2021/01/23 00:13:12;;;;;;;8.13;6.72;;;7.60;59.80;;;;;;2091721;28;20104;-58
2021/01/23 00:14:33;;;;;;;9.90;6.88;;;7.50;59.70;;;;;;2097737;28;20025;-60
2021/01/23 00:15:54;;;;;;;10.07;7.55;;;7.60;59.80;;;;;;2097637;28;20024;-58
2021/01/23 00:17:15;;;;;;;10.32;7.20;;;7.60;59.80;;;;;;2091748;28;20025;-59
2021/01/23 00:18:35;;;;;;;9.10;6.55;;;7.50;59.70;;;;;;2097539;28;20040;-60
2021/01/23 00:19:56;;;;;;;9.52;7.03;;;7.60;59.80;;;;;;2097953;28;20025;-60
2021/01/23 00:21:17;;;;;;;8.95;6.43;;;7.50;59.70;;;;;;2091453;28;20044;-60
2021/01/23 00:22:38;;;;;;;8.85;6.88;;;7.50;59.70;;;;;;2098049;28;20525;-59
2021/01/23 00:23:59;;;;;;;9.35;6.93;;;7.50;59.70;;;;;;2095747;28;20036;-58
2021/01/23 00:25:20;;;;;;;9.80;6.97;;;7.50;59.80;;;;;;2090872;28;20032;-60
2021/01/23 00:26:45;;;;;;;12.60;7.15;;;7.50;59.70;;;;;;2096877;28;20028;-57
2021/01/23 00:28:06;;;;;;;10.02;6.78;;;7.50;59.70;;;;;;2096414;28;20017;-58
2021/01/23 00:29:28;;;;;;;9.43;7.35;;;7.50;59.70;;;;;;2098405;28;20024;-60
2021/01/23 00:30:49;;;;;;;13.32;7.90;;;7.50;59.70;;;;;;2094817;28;20028;-59
2021/01/23 00:32:09;;;;;;;11.98;7.10;;;7.50;59.70;;;;;;2097131;28;20039;-60
2021/01/23 00:33:31;;;;;;;7.68;6.43;;;7.50;59.70;;;;;;2093227;28;20032;-60
2021/01/23 00:34:51;;;;;;;8.80;6.85;;;7.50;59.70;;;;;;2098871;28;20024;-60
2021/01/23 00:36:12;;;;;;;9.80;6.63;;;7.50;59.80;;;;;;2097018;28;20041;-58
2021/01/23 00:37:34;;;;;;;9.82;6.60;;;7.50;59.90;;;;;;2097546;28;20020;-60
2021/01/23 00:38:55;;;;;;;8.95;6.95;;;7.50;59.90;;;;;;2098253;28;20056;-58
2021/01/23 00:40:16;;;;;;;10.07;6.57;;;7.50;59.90;;;;;;2096833;28;20029;-58
2021/01/23 00:41:37;;;;;;;8.63;7.03;;;7.50;59.90;;;;;;2097851;28;20032;-58
2021/01/23 00:42:58;;;;;;;9.02;6.72;;;7.50;59.90;;;;;;2097803;28;20024;-60
2021/01/23 00:44:18;;;;;;;9.35;6.65;;;7.50;59.90;;;;;;2093360;28;20028;-59
2021/01/23 00:45:39;;;;;;;10.23;6.85;;;7.50;60.00;;;;;;2096754;28;20020;-58
2021/01/23 00:47:00;;;;;;;10.07;7.13;;;7.50;60.00;;;;;;2096676;28;20493;-58
2021/01/23 00:48:21;;;;;;;10.10;6.38;;;7.50;60.00;;;;;;2092553;28;20490;-60
2021/01/23 00:49:42;;;;;;;7.22;6.38;;;7.40;59.90;;;;;;2097771;28;20405;-58
2021/01/23 00:51:03;;;;;;;8.25;6.68;;;7.40;59.90;;;;;;2095477;28;20028;-58
2021/01/23 00:52:24;;;;;;;7.53;6.53;;;7.40;59.90;;;;;;2092612;28;20095;-60
2021/01/23 00:53:45;;;;;;;8.70;6.93;;;7.40;59.90;;;;;;2096979;28;20043;-60
2021/01/23 00:55:06;;;;;;;9.30;6.80;;;7.40;60.00;;;;;;2094878;28;20657;-60
2021/01/23 00:56:27;;;;;;;9.20;6.55;;;7.40;60.00;;;;;;2098620;28;20036;-59
2021/01/23 00:57:48;;;;;;;9.05;6.70;;;7.40;60.00;;;;;;2098219;28;20075;-59
2021/01/23 00:59:09;;;;;;;9.70;6.57;;;7.40;60.00;;;;;;2096133;28;20085;-59
2021/01/23 01:00:30;;;;;;;8.60;6.72;;;7.40;60.00;;;;;;2097185;28;20340;-59
2021/01/23 01:01:51;;;;;;;9.93;7.10;;;7.40;60.00;;;;;;2095830;28;20040;-59
2021/01/23 01:03:12;;;;;;;7.85;6.47;;;7.40;60.10;;;;;;2091635;28;20029;-59
2021/01/23 01:04:33;;;;;;;7.60;6.65;;;7.40;60.30;;;;;;2094341;28;20025;-60
2021/01/23 01:05:54;;;;;;;6.97;6.10;;;7.40;60.30;;;;;;2097091;28;20485;-59
2021/01/23 01:07:15;;;;;;;9.55;6.03;;;7.40;60.30;;;;;;2097241;28;20116;-59
2021/01/23 01:08:36;;;;;;;7.80;6.32;;;7.40;60.30;;;;;;2096233;28;20186;-59
2021/01/23 01:09:57;;;;;;;8.02;6.53;;;7.30;60.20;;;;;;2096452;28;20035;-59
2021/01/23 01:11:17;;;;;;;8.43;6.60;;;7.40;60.40;;;;;;2091869;28;20423;-59
2021/01/23 01:12:38;;;;;;;7.53;6.18;;;7.40;60.50;;;;;;2097591;28;20024;-59
2021/01/23 01:13:59;;;;;;;6.28;5.68;;;7.40;60.50;;;;;;2098023;28;20519;-59
2021/01/23 01:15:20;;;;;;;7.57;6.60;;;7.40;60.50;;;;;;2097183;28;20112;-59
2021/01/23 01:16:41;;;;;;;7.10;6.32;;;7.40;60.60;;;;;;2096813;28;20027;-59
2021/01/23 01:18:02;;;;;;;9.98;7.10;;;7.30;60.50;;;;;;2093977;28;20036;-59
2021/01/23 01:19:23;;;;;;;9.18;6.57;;;7.40;60.70;;;;;;2098524;28;20379;-59
2021/01/23 01:20:44;;;;;;;7.63;6.28;;;7.40;60.60;;;;;;2096708;28;20124;-59
2021/01/23 01:22:05;;;;;;;8.85;6.40;;;7.40;60.60;;;;;;2096765;28;20025;-59
2021/01/23 01:23:27;;;;;;;6.72;5.93;;;7.30;60.60;;;;;;2098495;28;20463;-59
2021/01/23 01:24:48;;;;;;;8.65;6.18;;;7.40;60.70;;;;;;2096426;28;20033;-59
2021/01/23 01:26:09;;;;;;;8.65;6.38;;;7.40;60.70;;;;;;2096604;28;20032;-59
2021/01/23 01:27:30;;;;;;;9.02;6.38;;;7.30;60.60;;;;;;2085116;28;20128;-60
2021/01/23 01:28:51;;;;;;;7.13;6.40;;;7.30;60.60;;;;;;2096118;28;20044;-59
2021/01/23 01:30:13;;;;;;;9.55;6.55;;;7.30;60.60;;;;;;2091410;28;20103;-59
2021/01/23 01:31:33;;;;;;;9.95;6.93;;;7.30;60.50;;;;;;2096681;28;20367;-59
2021/01/23 01:32:54;;;;;;;6.93;6.00;;;7.40;60.60;;;;;;2097810;28;20040;-59
2021/01/23 01:34:15;;;;;;;7.60;5.68;;;7.30;60.50;;;;;;2094342;28;20017;-60
2021/01/23 01:35:36;;;;;;;7.13;6.03;;;7.30;60.50;;;;;;2097078;28;20028;-59
2021/01/23 01:36:57;;;;;;;7.40;5.53;;;7.30;60.60;;;;;;2098678;28;20025;-59
2021/01/23 01:38:18;;;;;;;8.13;5.60;;;7.30;60.70;;;;;;2098530;28;20372;-59
2021/01/23 01:39:39;;;;;;;7.32;6.03;;;7.30;60.70;;;;;;2088859;28;20029;-59
2021/01/23 01:41:00;;;;;;;6.57;5.80;;;7.30;60.70;;;;;;2095369;28;20032;-59
2021/01/23 01:42:21;;;;;;;8.25;5.93;;;7.30;60.80;;;;;;2097632;28;20080;-60
2021/01/23 01:43:45;;;;;;;6.38;5.38;;;7.30;60.80;;;;;;2090967;28;20082;-59
2021/01/23 01:45:06;;;;;;;5.93;5.32;;;7.30;60.90;;;;;;2095587;28;20041;-59
2021/01/23 01:46:27;;;;;;;5.82;5.30;;;7.30;60.90;;;;;;2098347;28;20028;-60
2021/01/23 01:47:48;;;;;;;6.50;5.63;;;7.30;60.90;;;;;;2097295;28;20060;-59
2021/01/23 01:49:09;;;;;;;6.85;5.70;;;7.30;60.90;;;;;;2097687;28;20025;-59
2021/01/23 01:50:30;;;;;;;6.88;5.50;;;7.30;61.00;;;;;;2097167;28;20048;-59
2021/01/23 01:51:56;;;;;;;8.32;5.80;;;7.20;61.00;;;;;;2097079;28;20030;-59
2021/01/23 01:53:21;;;;;;;6.03;5.22;;;7.20;61.10;;;;;;2097009;28;20047;-60
2021/01/23 01:54:43;;;;;;;7.85;5.18;;;7.20;61.10;;;;;;2096525;28;20040;-60
2021/01/23 01:56:06;;;;;;;6.22;5.20;;;7.30;61.10;;;;;;2097517;28;20029;-59
2021/01/23 01:57:27;;;;;;;7.32;5.30;;;7.30;61.10;;;;;;2093532;28;20036;-59
2021/01/23 01:58:48;;;;;;;6.35;5.20;;;7.20;61.20;;;;;;2096217;28;20024;-59
2021/01/23 02:00:09;;;;;;;7.43;4.80;;;7.20;61.20;;;;;;2098383;28;20024;-59
2021/01/23 02:01:31;;;;;;;7.22;5.13;;;7.20;61.20;;;;;;2099812;28;20090;-59
2021/01/23 02:03:00;;;;;;;6.05;5.03;;;7.20;61.30;;;;;;2098358;28;20017;-59
2021/01/23 02:04:43;;;;;;;5.40;4.90;;;7.20;61.30;;;;;;2096040;28;20016;-59
2021/01/23 02:06:09;;;;;;;5.18;4.75;;;7.20;61.70;;;;;;2097426;28;20039;-59
2021/01/23 02:07:33;;;;;;;10.40;5.47;;;7.30;61.40;;;;;;2095218;28;20044;-59
2021/01/23 02:09:33;;;;;;;6.30;4.53;;;7.20;61.30;;;;;;2098647;28;20435;-59
2021/01/23 02:11:25;;;;;;;5.00;4.53;;;7.20;61.70;;;;;;2084455;28;20039;-59
2021/01/23 02:12:55;;;;;;;6.70;4.97;;;7.20;61.60;;;;;;2073548;28;20094;-59
2021/01/23 02:14:53;;;;;;;6.07;4.93;;;7.20;61.50;;;;;;2088840;28;20033;-60
2021/01/23 02:16:23;;;;;;;5.22;4.50;;;7.20;61.60;;;;;;2091945;28;20047;-59
2021/01/23 02:17:48;;;;;;;4.22;3.90;;;7.20;61.50;;;;;;2098122;28;20036;-59
2021/01/23 02:19:30;;;;;;;5.63;4.18;;;7.20;61.50;;;;;;2099328;28;20031;-59
2021/01/23 02:21:00;;;;;;;5.00;4.50;;;7.20;61.50;;;;;;2088584;28;20040;-59
2021/01/23 02:22:53;;;;;;;6.72;4.40;;;7.20;61.50;;;;;;2085443;28;20746;-60
2021/01/23 02:24:17;;;;;;;4.07;3.67;;;7.20;61.80;;;;;;2092556;28;20043;-59
2021/01/23 02:25:50;;;;;;;5.03;4.10;;;7.20;61.60;;;;;;2096432;28;20446;-60
2021/01/23 02:27:39;;;;;;;4.30;3.90;;;7.20;61.80;;;;;;2097613;28;20467;-59
2021/01/23 02:29:12;;;;;;;4.47;3.47;;;7.20;62.00;;;;;;2097943;28;20099;-59
2021/01/23 02:31:02;;;;;;;5.15;4.20;;;7.20;61.80;;;;;;2094622;28;20036;-59
2021/01/23 02:32:25;;;;;;;5.60;3.92;;;7.20;62.00;;;;;;2093688;28;20040;-60
2021/01/23 02:33:49;;;;;;;5.43;3.80;;;7.30;61.80;;;;;;2098988;28;20024;-59
2021/01/23 02:35:12;;;;;;;5.25;4.55;;;7.30;61.80;;;;;;2099781;28;20037;-59
2021/01/23 02:36:34;;;;;;;4.45;4.05;;;7.20;61.80;;;;;;2095191;28;20039;-61
2021/01/23 02:37:55;;;;;;;5.13;4.35;;;7.20;61.90;;;;;;2097289;28;20048;-60
2021/01/23 02:39:18;;;;;;;7.53;4.50;;;7.20;61.90;;;;;;2092010;28;20021;-59
2021/01/23 02:40:39;;;;;;;6.20;3.92;;;7.20;62.70;;;;;;2095954;28;20021;-59
2021/01/23 02:42:00;;;;;;;5.32;4.00;;;7.20;62.00;;;;;;2097837;28;20055;-59
2021/01/23 02:43:21;;;;;;;5.35;3.78;;;7.20;62.10;;;;;;2091823;28;20040;-59
2021/01/23 02:44:42;;;;;;;4.00;3.60;;;7.20;62.10;;;;;;2095922;28;20040;-59
2021/01/23 02:46:03;;;;;;;7.32;3.80;;;7.30;62.20;;;;;;2096642;28;20036;-60
2021/01/23 02:47:25;;;;;;;5.03;4.10;;;7.20;62.20;;;;;;2099079;28;20037;-59
2021/01/23 02:48:48;;;;;;;5.50;4.00;;;7.20;62.20;;;;;;2097902;28;20455;-59
2021/01/23 02:50:09;;;;;;;4.53;3.72;;;7.20;62.30;;;;;;2098943;28;20029;-59
2021/01/23 02:51:36;;;;;;;7.32;3.90;;;7.30;62.40;;;;;;2089029;28;20041;-59
2021/01/23 02:53:11;;;;;;;4.00;3.47;;;7.30;62.40;;;;;;2097076;28;20110;-59
2021/01/23 02:54:45;;;;;;;6.18;3.90;;;7.30;62.40;;;;;;2096797;28;20025;-59
2021/01/23 02:56:10;;;;;;;5.05;3.67;;;7.30;62.40;;;;;;2098291;28;20032;-59
2021/01/23 02:57:32;;;;;;;4.53;3.70;;;7.30;62.30;;;;;;2097364;28;20024;-59
2021/01/23 02:58:58;;;;;;;3.88;3.40;;;7.30;62.30;;;;;;2097947;28;20418;-59
2021/01/23 03:00:19;;;;;;;5.88;3.90;;;7.30;62.30;;;;;;2093230;28;20113;-59
2021/01/23 03:01:43;;;;;;;4.97;3.38;;;7.30;62.30;;;;;;2091663;28;20017;-58
2021/01/23 03:03:05;;;;;;;5.18;3.60;;;7.30;62.30;;;;;;2097483;28;20376;-59
2021/01/23 03:04:27;;;;;;;4.22;3.83;;;7.30;62.40;;;;;;2097385;28;20507;-59
2021/01/23 03:05:49;;;;;;;8.02;3.50;;;7.30;62.50;;;;;;2097793;28;20032;-59
2021/01/23 03:07:14;;;;;;;5.18;3.95;;;7.30;62.60;;;;;;2097705;28;20044;-59
2021/01/23 03:08:43;;;;;;;4.10;3.78;;;7.30;62.60;;;;;;2094573;28;20031;-59
2021/01/23 03:10:08;;;;;;;4.72;3.75;;;7.30;62.60;;;;;;2096370;28;20060;-59
2021/01/23 03:11:29;;;;;;;7.20;4.00;;;7.30;62.50;;;;;;2092911;28;20033;-59
2021/01/23 03:12:50;;;;;;;4.07;3.65;;;7.30;62.50;;;;;;2097487;28;20059;-58
2021/01/23 03:14:11;;;;;;;5.22;3.42;;;7.30;62.50;;;;;;2092574;28;20021;-58
2021/01/23 03:15:33;;;;;;;3.95;3.60;;;7.30;62.50;;;;;;2098146;28;20413;-59
2021/01/23 03:16:55;;;;;;;4.25;3.70;;;7.30;62.50;;;;;;2098649;28;20047;-59
2021/01/23 03:18:16;;;;;;;6.38;4.00;;;7.30;62.60;;;;;;2091855;28;20388;-59
2021/01/23 03:19:37;;;;;;;4.60;3.60;;;7.20;62.40;;;;;;2096740;28;20434;-59
2021/01/23 03:20:58;;;;;;;4.10;3.60;;;7.30;62.50;;;;;;2101993;28;20016;-59
2021/01/23 03:22:19;;;;;;;3.88;3.35;;;7.30;62.50;;;;;;2091644;28;20088;-59
2021/01/23 03:23:40;;;;;;;3.95;3.50;;;7.30;62.50;;;;;;2097288;28;20094;-59
2021/01/23 03:25:01;;;;;;;4.30;3.90;;;7.20;63.20;;;;;;2096768;28;20394;-59
2021/01/23 03:26:22;;;;;;;5.32;3.90;;;7.20;62.50;;;;;;2092582;28;20037;-59
2021/01/23 03:27:43;;;;;;;5.18;4.18;;;7.30;62.60;;;;;;2096476;28;20064;-59
2021/01/23 03:29:05;;;;;;;5.20;3.80;;;7.30;62.60;;;;;;2096490;28;20040;-59
2021/01/23 03:30:28;;;;;;;6.57;3.72;;;7.30;62.60;;;;;;2102949;28;20122;-59
2021/01/23 03:31:50;;;;;;;3.88;3.47;;;7.20;62.60;;;;;;2098260;28;20112;-58
2021/01/23 03:33:11;;;;;;;4.78;3.63;;;7.20;62.60;;;;;;2098100;28;20371;-59
2021/01/23 03:34:31;;;;;;;4.25;3.72;;;7.20;62.50;;;;;;2098216;28;20419;-58
2021/01/23 03:35:52;;;;;;;5.18;3.60;;;7.20;62.50;;;;;;2095401;28;20032;-58
2021/01/23 03:37:13;;;;;;;7.15;3.45;;;7.20;62.60;;;;;;2098325;28;20021;-60
2021/01/23 03:38:34;;;;;;;4.10;3.72;;;7.20;62.60;;;;;;2098003;28;20052;-60
2021/01/23 03:39:55;;;;;;;4.68;3.80;;;7.20;62.70;;;;;;2098080;28;20032;-60
2021/01/23 03:41:16;;;;;;;4.07;3.78;;;7.20;62.60;;;;;;2091771;28;20455;-59
2021/01/23 03:42:37;;;;;;;3.70;3.40;;;7.20;62.60;;;;;;2098018;28;20024;-58
2021/01/23 03:43:58;;;;;;;3.78;3.38;;;7.20;62.70;;;;;;2097307;28;20028;-60
2021/01/23 03:45:19;;;;;;;4.22;3.58;;;7.20;62.70;;;;;;2091811;28;20526;-60
2021/01/23 03:46:40;;;;;;;6.18;4.03;;;7.20;62.60;;;;;;2096283;28;20032;-60
2021/01/23 03:48:01;;;;;;;5.05;3.65;;;7.20;62.60;;;;;;2097930;28;20038;-61
2021/01/23 03:49:22;;;;;;;5.13;3.60;;;7.20;62.70;;;;;;2098454;28;20068;-59
2021/01/23 03:50:43;;;;;;;6.15;3.38;;;7.20;62.70;;;;;;2097931;28;20025;-60
2021/01/23 03:52:04;;;;;;;3.88;3.42;;;7.20;62.70;;;;;;2096562;28;20123;-60
2021/01/23 03:53:25;;;;;;;5.88;3.40;;;7.20;62.80;;;;;;2098783;28;20028;-60
2021/01/23 03:54:46;;;;;;;3.03;2.72;;;7.20;62.90;;;;;;2094120;28;20032;-59
2021/01/23 03:56:07;;;;;;;4.63;3.40;;;7.20;62.90;;;;;;2097404;28;20047;-57
2021/01/23 03:57:28;;;;;;;5.63;3.20;;;7.20;63.00;;;;;;2093696;28;20031;-60
2021/01/23 03:58:48;;;;;;;5.05;3.13;;;7.20;63.00;;;;;;2095558;28;20087;-60
2021/01/23 04:00:10;;;;;;;5.57;3.17;;;7.20;63.00;;;;;;2097601;28;20086;-59
2021/01/23 04:01:31;;;;;;;4.13;3.13;;;7.20;63.00;;;;;;2092194;28;20707;-60
2021/01/23 04:02:52;;;;;;;4.95;3.55;;;7.20;63.10;;;;;;2096211;28;20478;-60
2021/01/23 04:04:12;;;;;;;5.30;3.55;;;7.20;63.10;;;;;;2099533;28;20020;-60
2021/01/23 04:05:33;;;;;;;4.15;3.50;;;7.20;63.20;;;;;;2098761;28;20055;-60
2021/01/23 04:06:55;;;;;;;5.60;3.92;;;7.30;63.30;;;;;;2097311;28;20024;-59
2021/01/23 04:08:16;;;;;;;5.60;3.72;;;7.30;63.30;;;;;;2097277;28;20056;-59
2021/01/23 04:09:37;;;;;;;4.00;3.58;;;7.30;63.30;;;;;;2097586;28;20087;-60
2021/01/23 04:10:59;;;;;;;3.75;3.17;;;7.30;63.30;;;;;;2097515;28;20471;-60
2021/01/23 04:12:20;;;;;;;4.35;3.30;;;7.30;63.30;;;;;;2096979;28;20036;-60
2021/01/23 04:13:40;;;;;;;5.15;3.15;;;7.30;63.20;;;;;;2097809;28;20103;-60
2021/01/23 04:15:02;;;;;;;3.28;2.97;;;7.30;63.20;;;;;;2096469;28;20039;-58
2021/01/23 04:16:22;;;;;;;3.45;3.13;;;7.30;63.30;;;;;;2097770;28;20032;-60
2021/01/23 04:17:43;;;;;;;4.30;3.08;;;7.40;63.40;;;;;;2097581;28;20025;-60
2021/01/23 04:19:05;;;;;;;3.88;3.45;;;7.30;63.30;;;;;;2096332;28;20042;-60
2021/01/23 04:20:26;;;;;;;3.40;3.10;;;7.30;63.40;;;;;;2093150;28;20024;-60
2021/01/23 04:21:47;;;;;;;4.43;3.08;;;7.40;63.50;;;;;;2097153;28;20036;-60
2021/01/23 04:23:08;;;;;;;3.47;3.17;;;7.40;63.50;;;;;;2097095;28;20043;-60
2021/01/23 04:24:29;;;;;;;3.33;3.03;;;7.40;63.50;;;;;;2096502;28;20400;-60
2021/01/23 04:25:50;;;;;;;2.90;2.70;;;7.40;63.50;;;;;;2088405;28;20041;-60
2021/01/23 04:27:10;;;;;;;3.38;2.95;;;7.40;63.50;;;;;;2094433;28;20040;-60
2021/01/23 04:28:31;;;;;;;3.72;3.28;;;7.40;63.50;;;;;;2093236;28;20045;-58
2021/01/23 04:29:52;;;;;;;4.82;2.70;;;7.50;63.50;;;;;;2097695;28;20033;-60
2021/01/23 04:31:13;;;;;;;3.65;3.35;;;7.50;63.60;;;;;;2090933;28;20114;-60
2021/01/23 04:32:35;;;;;;;3.35;3.05;;;7.50;63.60;;;;;;2086129;28;20572;-59
2021/01/23 04:33:56;;;;;;;4.85;3.25;;;7.50;63.50;;;;;;2095316;28;20032;-60
2021/01/23 04:35:17;;;;;;;3.83;2.78;;;7.50;63.50;;;;;;2091410;28;20032;-60
2021/01/23 04:36:38;;;;;;;3.67;2.90;;;7.50;63.50;;;;;;2092605;28;20047;-59
2021/01/23 04:37:58;;;;;;;2.72;2.53;;;7.60;63.50;;;;;;2097033;28;20082;-59
2021/01/23 04:39:20;;;;;;;3.13;2.92;;;7.60;63.40;;;;;;2091983;28;20526;-59
2021/01/23 04:40:40;;;;;;;2.97;2.67;;;7.60;63.40;;;;;;2096038;28;20029;-59
2021/01/23 04:42:05;;;;;;;4.07;3.30;;;7.60;63.40;;;;;;2096931;28;20029;-60
2021/01/23 04:43:26;;;;;;;4.47;3.00;;;7.60;63.40;;;;;;2091760;28;20462;-59
2021/01/23 04:44:47;;;;;;;3.30;3.00;;;7.70;63.40;;;;;;2095252;28;20068;-59
2021/01/23 04:46:08;;;;;;;3.92;3.00;;;7.70;63.40;;;;;;2096702;28;20051;-59
2021/01/23 04:47:29;;;;;;;3.33;3.03;;;7.70;63.50;;;;;;2098554;28;20395;-59
2021/01/23 04:48:50;;;;;;;4.13;3.13;;;7.70;63.50;;;;;;2097840;28;20041;-59
2021/01/23 04:50:12;;;;;;;3.10;2.80;;;7.70;63.50;;;;;;2091121;28;20041;-59
2021/01/23 04:51:33;;;;;;;5.55;3.08;;;7.70;63.50;;;;;;2096718;28;20483;-59
2021/01/23 04:52:54;;;;;;;3.08;2.50;;;7.80;63.50;;;;;;2102991;28;20114;-59
2021/01/23 04:54:15;;;;;;;4.13;3.03;;;7.80;63.50;;;;;;2095322;28;20025;-59
2021/01/23 04:55:36;;;;;;;4.72;2.97;;;7.80;63.50;;;;;;2096735;28;20036;-59
2021/01/23 04:56:57;;;;;;;2.90;2.70;;;7.80;63.60;;;;;;2097291;28;20032;-59
2021/01/23 04:58:18;;;;;;;3.13;2.78;;;7.80;63.60;;;;;;2096612;28;20032;-59
2021/01/23 04:59:39;;;;;;;4.72;3.13;;;7.80;63.70;;;;;;2094338;28;20051;-59
2021/01/23 05:00:59;;;;;;;2.88;2.65;;;7.80;63.70;;;;;;2099664;28;20020;-59
2021/01/23 05:02:24;;;;;;;3.97;2.72;;;7.90;63.60;;;;;;2097651;28;20111;-59
2021/01/23 05:03:59;;;;;;;3.83;2.97;;;7.90;63.60;;;;;;2096965;28;20032;-59
2021/01/23 05:05:20;;;;;;;4.57;3.28;;;7.90;63.70;;;;;;2096361;28;20663;-59
2021/01/23 05:06:56;;;;;;;4.22;2.90;;;7.90;63.50;;;;;;2094414;28;20100;-59
2021/01/23 05:08:17;;;;;;;4.95;3.22;;;7.90;63.40;;;;;;2098216;28;20111;-59
2021/01/23 05:09:38;;;;;;;4.43;3.25;;;7.90;63.40;;;;;;2097997;28;20029;-59
2021/01/23 05:10:59;;;;;;;3.92;3.28;;;7.90;63.50;;;;;;2098292;28;20033;-60
2021/01/23 05:12:33;;;;;;;3.50;3.00;;;7.90;63.60;;;;;;2093257;28;20124;-60
2021/01/23 05:14:14;;;;;;;4.43;2.95;;;7.90;63.80;;;;;;2097565;28;20499;-60
2021/01/23 05:15:35;;;;;;;3.80;3.22;;;7.90;63.70;;;;;;2098136;28;20429;-60
2021/01/23 05:17:05;;;;;;;3.17;2.88;;;7.90;63.50;;;;;;2100162;28;20029;-60
2021/01/23 05:18:26;;;;;;;6.63;3.05;;;8.00;63.50;;;;;;2093531;28;20025;-57
2021/01/23 05:19:47;;;;;;;3.42;3.13;;;8.00;63.40;;;;;;2099457;28;20028;-60
2021/01/23 05:21:11;;;;;;;3.50;3.05;;;8.00;63.40;;;;;;2106405;28;20035;-60
2021/01/23 05:22:49;;;;;;;3.85;3.13;;;8.00;63.40;;;;;;2097875;28;20044;-57
2021/01/23 05:24:13;;;;;;;4.80;2.78;;;8.00;63.50;;;;;;2099041;28;20345;-58
2021/01/23 05:25:35;;;;;;;3.63;3.13;;;8.00;63.30;;;;;;2097040;28;20513;-60
2021/01/23 05:26:56;;;;;;;3.63;3.10;;;8.00;63.20;;;;;;2098781;28;20070;-60
2021/01/23 05:28:31;;;;;;;4.05;3.33;;;7.90;63.10;;;;;;2098500;28;20063;-59
2021/01/23 05:29:57;;;;;;;5.93;3.58;;;8.00;63.30;;;;;;2098054;28;20032;-58
2021/01/23 05:31:18;;;;;;;4.32;2.83;;;8.00;63.30;;;;;;2090085;28;20037;-58
2021/01/23 05:32:39;;;;;;;3.08;2.75;;;8.00;63.30;;;;;;2095521;28;20037;-58
2021/01/23 05:34:00;;;;;;;3.78;2.97;;;8.00;63.20;;;;;;2089368;28;20044;-58
2021/01/23 05:35:21;;;;;;;5.20;2.80;;;8.00;63.20;;;;;;2091362;28;20029;-58
2021/01/23 05:36:42;;;;;;;6.15;3.60;;;8.00;63.30;;;;;;2098164;28;20036;-60
2021/01/23 05:38:18;;;;;;;3.10;2.83;;;7.90;63.20;;;;;;2097021;28;20367;-58
2021/01/23 05:39:47;;;;;;;4.57;3.15;;;7.90;63.20;;;;;;2097237;28;20032;-59
2021/01/23 05:41:08;;;;;;;5.22;3.47;;;7.90;63.00;;;;;;2099152;28;20039;-58
2021/01/23 05:42:29;;;;;;;3.63;3.10;;;7.90;63.00;;;;;;2100366;28;20024;-57
2021/01/23 05:43:51;;;;;;;4.05;3.50;;;7.90;63.00;;;;;;2098933;28;20243;-60
2021/01/23 05:45:14;;;;;;;5.55;3.53;;;7.90;63.00;;;;;;2091717;28;20028;-57
2021/01/23 05:46:37;;;;;;;5.32;3.08;;;7.90;63.00;;;;;;2094966;28;20025;-58
2021/01/23 05:48:08;;;;;;;7.38;3.53;;;7.90;63.00;;;;;;2097652;28;20130;-60
2021/01/23 05:49:29;;;;;;;5.22;3.55;;;7.90;63.00;;;;;;2093315;28;20044;-57
2021/01/23 05:50:51;;;;;;;3.95;3.55;;;7.90;63.00;;;;;;2098234;28;20036;-58
2021/01/23 05:52:12;;;;;;;3.20;2.95;;;7.90;63.10;;;;;;2091713;28;20029;-58
2021/01/23 05:53:33;;;;;;;3.65;3.30;;;7.80;63.10;;;;;;2098475;28;20410;-58
2021/01/23 05:54:54;;;;;;;4.60;3.50;;;7.90;63.10;;;;;;2098014;28;20028;-58
2021/01/23 05:56:16;;;;;;;3.80;3.50;;;7.80;63.20;;;;;;2092041;28;20031;-58
2021/01/23 05:57:37;;;;;;;3.90;3.40;;;7.80;63.20;;;;;;2097314;28;20155;-60
2021/01/23 05:58:58;;;;;;;4.35;3.45;;;7.80;63.20;;;;;;2090046;28;20037;-60
2021/01/23 06:00:25;;;;;;;4.40;3.40;;;7.80;63.30;;;;;;2089397;28;20025;-60
2021/01/23 06:01:46;;;;;;;3.40;3.10;;;7.80;63.40;;;;;;2098177;28;20451;-58
2021/01/23 06:03:07;;;;;;;3.30;2.97;;;7.80;63.50;;;;;;2099001;28;20107;-58
2021/01/23 06:04:28;;;;;;;4.45;3.50;;;7.80;63.60;;;;;;2095318;28;20028;-58
2021/01/23 06:05:56;;;;;;;3.47;3.17;;;7.80;63.70;;;;;;2097039;28;20115;-59
2021/01/23 06:07:46;;;;;;;3.60;3.30;;;7.80;63.80;;;;;;2091664;28;20116;-59
2021/01/23 06:09:07;;;;;;;4.10;3.67;;;7.90;64.00;;;;;;2099500;28;20526;-59
2021/01/23 06:10:35;;;;;;;5.30;3.40;;;7.90;63.90;;;;;;2093811;28;20055;-58
2021/01/23 06:11:56;;;;;;;3.97;3.58;;;7.90;63.80;;;;;;2098018;28;20067;-58
2021/01/23 06:13:45;;;;;;;4.00;3.60;;;7.90;63.80;;;;;;2099226;28;20080;-58
2021/01/23 06:15:30;;;;;;;3.90;3.60;;;7.90;63.80;;;;;;2098180;28;20027;-59
2021/01/23 06:16:51;;;;;;;3.95;3.55;;;7.90;63.80;;;;;;2098267;28;20025;-58
2021/01/23 06:18:21;;;;;;;4.20;3.80;;;8.00;63.80;;;;;;2097634;28;20071;-60
2021/01/23 06:19:43;;;;;;;5.40;3.53;;;8.00;63.90;;;;;;2094196;28;20029;-60
2021/01/23 06:21:04;;;;;;;3.80;3.50;;;8.00;63.80;;;;;;2097419;28;20036;-59
2021/01/23 06:22:55;;;;;;;6.55;3.75;;;8.00;63.90;;;;;;2097889;28;20040;-59
2021/01/23 06:24:17;;;;;;;4.43;3.55;;;8.00;63.90;;;;;;2094910;28;20527;-60
2021/01/23 06:25:56;;;;;;;5.43;3.33;;;8.00;63.90;;;;;;2097102;28;20544;-57
2021/01/23 06:27:17;;;;;;;4.68;3.75;;;8.00;63.90;;;;;;2102312;28;20066;-60
2021/01/23 06:28:41;;;;;;;4.43;3.80;;;8.00;63.90;;;;;;2098471;28;20470;-59
2021/01/23 06:30:22;;;;;;;6.10;4.25;;;8.00;63.90;;;;;;2097073;28;20036;-59
2021/01/23 06:31:43;;;;;;;4.88;3.97;;;8.10;64.00;;;;;;2097850;28;20040;-59
2021/01/23 06:33:24;;;;;;;5.35;4.20;;;8.10;64.00;;;;;;2096183;28;20029;-59
2021/01/23 06:34:55;;;;;;;7.03;4.22;;;8.10;64.00;;;;;;2095931;28;20032;-59
2021/01/23 06:36:20;;;;;;;4.93;4.40;;;8.10;64.00;;;;;;2091717;28;20114;-59
2021/01/23 06:37:41;;;;;;;4.50;4.10;;;8.20;63.90;;;;;;2099612;28;20454;-59
2021/01/23 06:39:06;;;;;;;6.30;4.35;;;8.20;64.00;;;;;;2097733;28;20134;-59
2021/01/23 06:40:28;;;;;;;4.88;4.28;;;8.20;64.00;;;;;;2097879;28;20024;-60
2021/01/23 06:41:49;;;;;;;5.28;4.50;;;8.20;64.20;;;;;;2098762;28;20055;-59
2021/01/23 06:43:10;;;;;;;6.28;4.47;;;8.20;64.20;;;;;;2097737;28;20032;-59
2021/01/23 06:44:32;;;;;;;6.22;5.18;;;8.20;64.20;;;;;;2099140;28;20043;-59
2021/01/23 06:45:53;;;;;;;7.07;4.82;;;8.20;64.20;;;;;;2101169;28;20028;-59
2021/01/23 06:47:14;;;;;;;7.35;4.80;;;8.20;64.20;;;;;;2098206;28;20032;-59
2021/01/23 06:48:35;;;;;;;5.30;4.80;;;8.20;64.20;;;;;;2098279;28;20475;-58
2021/01/23 06:49:56;;;;;;;5.30;4.80;;;8.20;64.20;;;;;;2098382;28;20048;-58
2021/01/23 06:51:19;;;;;;;5.45;4.70;;;8.20;64.20;;;;;;2097773;28;20064;-58
2021/01/23 06:52:45;;;;;;;5.82;4.75;;;8.30;64.20;;;;;;2097558;28;20040;-60
2021/01/23 06:54:13;;;;;;;5.90;4.97;;;8.20;64.10;;;;;;2096270;28;20032;-60
2021/01/23 06:55:43;;;;;;;6.78;5.18;;;8.30;64.10;;;;;;2091999;28;20055;-59
2021/01/23 06:57:05;;;;;;;5.93;5.13;;;8.30;64.10;;;;;;2096998;28;20039;-60
2021/01/23 06:58:34;;;;;;;5.20;4.60;;;8.30;64.10;;;;;;2092722;28;20474;-59
2021/01/23 06:59:55;;;;;;;5.80;5.10;;;8.30;64.20;;;;;;2096820;28;20055;-60
2021/01/23 07:01:16;;;;;;;6.78;5.30;;;8.30;64.10;;;;;;2098822;28;20034;-60
2021/01/23 07:02:37;;;;;;;5.82;5.22;;;8.30;64.10;;;;;;2098311;28;20024;-60
2021/01/23 07:03:58;;;;;;;6.28;5.45;;;8.30;64.10;;;;;;2097552;28;20054;-60
2021/01/23 07:05:18;;;;;;;6.57;5.47;;;8.30;64.10;;;;;;2091892;28;20111;-59
2021/01/23 07:06:39;;;;;;;6.85;5.25;;;8.30;64.40;;;;;;2097834;28;20028;-59
2021/01/23 07:08:00;;;;;;;6.47;5.35;;;8.30;64.10;;;;;;2098094;28;20072;-59
2021/01/23 07:09:48;;;;;;;5.50;5.03;;;8.30;64.00;;;;;;2096249;28;20463;-59
2021/01/23 07:11:15;;;;;;;6.90;5.50;;;8.30;64.00;;;;;;2091842;28;20071;-60
2021/01/23 07:12:38;;;;;;;7.25;5.28;;;8.40;63.90;;;;;;2097779;28;20078;-60
2021/01/23 07:14:06;;;;;;;7.95;5.20;;;8.30;63.70;;;;;;2099589;28;20051;-59
2021/01/23 07:15:29;;;;;;;5.97;5.15;;;8.30;63.70;;;;;;2086591;28;20053;-59
2021/01/23 07:16:52;;;;;;;6.10;5.50;;;8.30;63.60;;;;;;2095530;28;20047;-59
2021/01/23 07:18:14;;;;;;;5.32;4.82;;;8.30;63.60;;;;;;2097374;28;20256;-60
2021/01/23 07:19:35;;;;;;;6.72;5.70;;;8.30;63.50;;;;;;2097284;28;20020;-60
2021/01/23 07:20:56;;;;;;;5.80;5.20;;;8.30;63.50;;;;;;2096473;28;20043;-60
2021/01/23 07:22:18;;;;;;;7.90;5.25;;;8.30;63.50;;;;;;2097561;28;20101;-59